Pagrindinis puslapis
METAR-TAF:

METAR-TAF

Oro uostai :

Tarava, Kiribatis

platuma: 01-21N, ilguma: 172-55E, Aukštis: 2 m

Dabartinis oras

Ataskaita buvo paskelbta 36 minutes, ne 08:00 UTC
Vėjas 4 kt iš Rytų/Šiaurės Rytų
Temperatūra 29°C
Drėgmė 74%
Slėgis 1008 hPa
Matomumas 10 km arba daugiau
Mažai debesys ne aukštis 2000 ft

METAR: NGTA 220800Z 06004KT 9999 FEW020 29/24 Q1008

Laikas: 22:36 (08:36 UTC)

Prognozė

Ataskaita buvo paskelbta 3 valandos ir 29 minutes, ne 05:07 UTC
Prognozė galioja nuo 22 metu 06 UTC su 23 metu 06 UTC
Vėjas 5 kt iš Rytų/Šiaurės Rytų
Matomumas 10 km arba daugiau
Mažai debesys ne aukštis 2000 ft

TAF: NGTA 220507Z 2206/2306 07005KT 9999 FEW020

Orai ataskaitas ir orų prognozės (METAR, TAF).

turimą stotys yra geltonos ir raudonos taškus žemėlapyje.

Perkelti pele per norėdami pamatyti stoties vardą.

Tada spustelėkite, norėdami matyti oro stebėjimo ir prognozės.

Norėdami pakeisti žemėlapį: spustelėkite ant žalios mygtukų su juodo kryžiaus žemyn,; žalią mygtuką su brūkšneliu, jei norite nutolinti; arba žalių rodyklių gretimoms žemėlapius.


METAR-TAF: